Aviation Digital Data Service (ADDS)

Output produced by METARs form (1926 UTC 19 August 2019)
found at http://www.aviationweather.gov/metar/data/
 
METAR text: OEJN 191900Z 30007KT CAVOK 34/21 Q1007 NOSIG
Conditions at: OEJN (JEDDAH/KING ABDU, SA) observed 1900 UTC 19 August 2019
Temperature: 34.0°C (93°F)
Dewpoint: 21.0°C (70°F) [RH = 47%]
Pressure (altimeter): 29.73 inches Hg (1007.0 mb)
Winds: from the WNW (300 degrees) at 8 MPH (7 knots; 3.6 m/s)
Visibility: 6 or more miles (10+ km)
Ceiling: ceiling and visibility are OK
Clouds: unknown
Weather: no significant weather observed at this time

METAR text: OEJN 191800Z 36008KT CAVOK 34/20 Q1007 NOSIG
Conditions at: OEJN (JEDDAH/KING ABDU, SA) observed 1800 UTC 19 August 2019
Temperature: 34.0°C (93°F)
Dewpoint: 20.0°C (68°F) [RH = 44%]
Pressure (altimeter): 29.73 inches Hg (1007.0 mb)
Winds: from the N (360 degrees) at 9 MPH (8 knots; 4.1 m/s)
Visibility: 6 or more miles (10+ km)
Ceiling: ceiling and visibility are OK
Clouds: unknown
Weather: no significant weather observed at this time

METAR text: OEJN 191700Z 33013KT CAVOK 34/20 Q1006 NOSIG
Conditions at: OEJN (JEDDAH/KING ABDU, SA) observed 1700 UTC 19 August 2019
Temperature: 34.0°C (93°F)
Dewpoint: 20.0°C (68°F) [RH = 44%]
Pressure (altimeter): 29.70 inches Hg (1006.0 mb)
Winds: from the NNW (330 degrees) at 15 MPH (13 knots; 6.7 m/s)
Visibility: 6 or more miles (10+ km)
Ceiling: ceiling and visibility are OK
Clouds: unknown
Weather: no significant weather observed at this time

METAR text: OEJN 191600Z 30016KT CAVOK 36/17 Q1006 NOSIG
Conditions at: OEJN (JEDDAH/KING ABDU, SA) observed 1600 UTC 19 August 2019
Temperature: 36.0°C (97°F)
Dewpoint: 17.0°C (63°F) [RH = 33%]
Pressure (altimeter): 29.70 inches Hg (1006.0 mb)
Winds: from the WNW (300 degrees) at 18 MPH (16 knots; 8.2 m/s)
Visibility: 6 or more miles (10+ km)
Ceiling: ceiling and visibility are OK
Clouds: unknown
Weather: no significant weather observed at this time

METAR text: OEJN 191500Z 30018KT CAVOK 37/18 Q1006 NOSIG
Conditions at: OEJN (JEDDAH/KING ABDU, SA) observed 1500 UTC 19 August 2019
Temperature: 37.0°C (99°F)
Dewpoint: 18.0°C (64°F) [RH = 33%]
Pressure (altimeter): 29.70 inches Hg (1006.0 mb)
Winds: from the WNW (300 degrees) at 21 MPH (18 knots; 9.3 m/s)
Visibility: 6 or more miles (10+ km)
Ceiling: ceiling and visibility are OK
Clouds: unknown
Weather: no significant weather observed at this time

METAR text: OEJN 191400Z 30018KT CAVOK 38/17 Q1006 NOSIG
Conditions at: OEJN (JEDDAH/KING ABDU, SA) observed 1400 UTC 19 August 2019
Temperature: 38.0°C (100°F)
Dewpoint: 17.0°C (63°F) [RH = 29%]
Pressure (altimeter): 29.70 inches Hg (1006.0 mb)
Winds: from the WNW (300 degrees) at 21 MPH (18 knots; 9.3 m/s)
Visibility: 6 or more miles (10+ km)
Ceiling: ceiling and visibility are OK
Clouds: unknown
Weather: no significant weather observed at this time

METAR text: OEJN 191300Z 27014KT CAVOK 37/22 Q1006 NOSIG
Conditions at: OEJN (JEDDAH/KING ABDU, SA) observed 1300 UTC 19 August 2019
Temperature: 37.0°C (99°F)
Dewpoint: 22.0°C (72°F) [RH = 42%]
Pressure (altimeter): 29.70 inches Hg (1006.0 mb)
Winds: from the W (270 degrees) at 16 MPH (14 knots; 7.2 m/s)
Visibility: 6 or more miles (10+ km)
Ceiling: ceiling and visibility are OK
Clouds: unknown
Weather: no significant weather observed at this time

METAR text: OEJN 191200Z 27016KT CAVOK 38/21 Q1006 NOSIG
Conditions at: OEJN (JEDDAH/KING ABDU, SA) observed 1200 UTC 19 August 2019
Temperature: 38.0°C (100°F)
Dewpoint: 21.0°C (70°F) [RH = 38%]
Pressure (altimeter): 29.70 inches Hg (1006.0 mb)
Winds: from the W (270 degrees) at 18 MPH (16 knots; 8.2 m/s)
Visibility: 6 or more miles (10+ km)
Ceiling: ceiling and visibility are OK
Clouds: unknown
Weather: no significant weather observed at this time

METAR text: OEJN 191100Z 30016KT 9999 FEW040 38/22 Q1006 NOSIG
Conditions at: OEJN (JEDDAH/KING ABDU, SA) observed 1100 UTC 19 August 2019
Temperature: 38.0°C (100°F)
Dewpoint: 22.0°C (72°F) [RH = 40%]
Pressure (altimeter): 29.70 inches Hg (1006.0 mb)
Winds: from the WNW (300 degrees) at 18 MPH (16 knots; 8.2 m/s)
Visibility: 6 or more miles (10+ km)
Ceiling: at least 12,000 feet AGL
Clouds: few clouds at 4000 feet AGL
Weather: no significant weather observed at this time

METAR text: OEJN 191000Z 34016KT 9999 FEW040 40/20 Q1007 NOSIG
Conditions at: OEJN (JEDDAH/KING ABDU, SA) observed 1000 UTC 19 August 2019
Temperature: 40.0°C (104°F)
Dewpoint: 20.0°C (68°F) [RH = 32%]
Pressure (altimeter): 29.73 inches Hg (1007.0 mb)
Winds: from the NNW (340 degrees) at 18 MPH (16 knots; 8.2 m/s)
Visibility: 6 or more miles (10+ km)
Ceiling: at least 12,000 feet AGL
Clouds: few clouds at 4000 feet AGL
Weather: no significant weather observed at this time

METAR text: OEJN 190900Z 32014KT 9999 FEW040 39/21 Q1007 NOSIG
Conditions at: OEJN (JEDDAH/KING ABDU, SA) observed 0900 UTC 19 August 2019
Temperature: 39.0°C (102°F)
Dewpoint: 21.0°C (70°F) [RH = 36%]
Pressure (altimeter): 29.73 inches Hg (1007.0 mb)
Winds: from the NW (320 degrees) at 16 MPH (14 knots; 7.2 m/s)
Visibility: 6 or more miles (10+ km)
Ceiling: at least 12,000 feet AGL
Clouds: few clouds at 4000 feet AGL
Weather: no significant weather observed at this time

METAR text: OEJN 190800Z 33014KT 9999 FEW040 38/21 Q1007 NOSIG
Conditions at: OEJN (JEDDAH/KING ABDU, SA) observed 0800 UTC 19 August 2019
Temperature: 38.0°C (100°F)
Dewpoint: 21.0°C (70°F) [RH = 38%]
Pressure (altimeter): 29.73 inches Hg (1007.0 mb)
Winds: from the NNW (330 degrees) at 16 MPH (14 knots; 7.2 m/s)
Visibility: 6 or more miles (10+ km)
Ceiling: at least 12,000 feet AGL
Clouds: few clouds at 4000 feet AGL
Weather: no significant weather observed at this time

METAR text: OEJN 190700Z 34008KT 9999 SCT040 36/24 Q1007 NOSIG
Conditions at: OEJN (JEDDAH/KING ABDU, SA) observed 0700 UTC 19 August 2019
Temperature: 36.0°C (97°F)
Dewpoint: 24.0°C (75°F) [RH = 50%]
Pressure (altimeter): 29.73 inches Hg (1007.0 mb)
Winds: from the NNW (340 degrees) at 9 MPH (8 knots; 4.1 m/s)
Visibility: 6 or more miles (10+ km)
Ceiling: at least 12,000 feet AGL
Clouds: scattered clouds at 4000 feet AGL
Weather: no significant weather observed at this time

METAR text: OEJN 190600Z 34010KT 9999 SCT040 33/25 Q1008 NOSIG
Conditions at: OEJN (JEDDAH/KING ABDU, SA) observed 0600 UTC 19 August 2019
Temperature: 33.0°C (91°F)
Dewpoint: 25.0°C (77°F) [RH = 63%]
Pressure (altimeter): 29.76 inches Hg (1008.0 mb)
Winds: from the NNW (340 degrees) at 12 MPH (10 knots; 5.1 m/s)
Visibility: 6 or more miles (10+ km)
Ceiling: at least 12,000 feet AGL
Clouds: scattered clouds at 4000 feet AGL
Weather: no significant weather observed at this time

METAR text: OEJN 190500Z 33008KT 9999 SCT040 32/27 Q1007 NOSIG
Conditions at: OEJN (JEDDAH/KING ABDU, SA) observed 0500 UTC 19 August 2019
Temperature: 32.0°C (90°F)
Dewpoint: 27.0°C (81°F) [RH = 75%]
Pressure (altimeter): 29.73 inches Hg (1007.0 mb)
Winds: from the NNW (330 degrees) at 9 MPH (8 knots; 4.1 m/s)
Visibility: 6 or more miles (10+ km)
Ceiling: at least 12,000 feet AGL
Clouds: scattered clouds at 4000 feet AGL
Weather: no significant weather observed at this time

METAR text: OEJN 190400Z 31006KT 9999 SCT040 32/27 Q1006 NOSIG
Conditions at: OEJN (JEDDAH/KING ABDU, SA) observed 0400 UTC 19 August 2019
Temperature: 32.0°C (90°F)
Dewpoint: 27.0°C (81°F) [RH = 75%]
Pressure (altimeter): 29.70 inches Hg (1006.0 mb)
Winds: from the NW (310 degrees) at 7 MPH (6 knots; 3.1 m/s)
Visibility: 6 or more miles (10+ km)
Ceiling: at least 12,000 feet AGL
Clouds: scattered clouds at 4000 feet AGL
Weather: no significant weather observed at this time

METAR text: OEJN 190300Z 36004KT 9999 FEW040 31/27 Q1006 NOSIG
Conditions at: OEJN (JEDDAH/KING ABDU, SA) observed 0300 UTC 19 August 2019
Temperature: 31.0°C (88°F)
Dewpoint: 27.0°C (81°F) [RH = 79%]
Pressure (altimeter): 29.70 inches Hg (1006.0 mb)
Winds: from the N (360 degrees) at 5 MPH (4 knots; 2.1 m/s)
Visibility: 6 or more miles (10+ km)
Ceiling: at least 12,000 feet AGL
Clouds: few clouds at 4000 feet AGL
Weather: no significant weather observed at this time

METAR text: OEJN 190200Z 27006KT CAVOK 31/27 Q1005 NOSIG
Conditions at: OEJN (JEDDAH/KING ABDU, SA) observed 0200 UTC 19 August 2019
Temperature: 31.0°C (88°F)
Dewpoint: 27.0°C (81°F) [RH = 79%]
Pressure (altimeter): 29.68 inches Hg (1005.0 mb)
Winds: from the W (270 degrees) at 7 MPH (6 knots; 3.1 m/s)
Visibility: 6 or more miles (10+ km)
Ceiling: ceiling and visibility are OK
Clouds: unknown
Weather: no significant weather observed at this time

METAR text: OEJN 190100Z 28006KT 9999 FEW040 32/26 Q1005 NOSIG
Conditions at: OEJN (JEDDAH/KING ABDU, SA) observed 0100 UTC 19 August 2019
Temperature: 32.0°C (90°F)
Dewpoint: 26.0°C (79°F) [RH = 71%]
Pressure (altimeter): 29.68 inches Hg (1005.0 mb)
Winds: from the W (280 degrees) at 7 MPH (6 knots; 3.1 m/s)
Visibility: 6 or more miles (10+ km)
Ceiling: at least 12,000 feet AGL
Clouds: few clouds at 4000 feet AGL
Weather: no significant weather observed at this time

METAR text: OEJN 190000Z 28006KT 9999 FEW040 32/26 Q1005 NOSIG
Conditions at: OEJN (JEDDAH/KING ABDU, SA) observed 0000 UTC 19 August 2019
Temperature: 32.0°C (90°F)
Dewpoint: 26.0°C (79°F) [RH = 71%]
Pressure (altimeter): 29.68 inches Hg (1005.0 mb)
Winds: from the W (280 degrees) at 7 MPH (6 knots; 3.1 m/s)
Visibility: 6 or more miles (10+ km)
Ceiling: at least 12,000 feet AGL
Clouds: few clouds at 4000 feet AGL
Weather: no significant weather observed at this time

METAR text: OEJN 182300Z 28002KT 9999 FEW040 32/26 Q1005 NOSIG
Conditions at: OEJN (JEDDAH/KING ABDU, SA) observed 2300 UTC 18 August 2019
Temperature: 32.0°C (90°F)
Dewpoint: 26.0°C (79°F) [RH = 71%]
Pressure (altimeter): 29.68 inches Hg (1005.0 mb)
Winds: from the W (280 degrees) at 2 MPH (2 knots; 1.0 m/s)
Visibility: 6 or more miles (10+ km)
Ceiling: at least 12,000 feet AGL
Clouds: few clouds at 4000 feet AGL
Weather: no significant weather observed at this time

METAR text: OEJN 182200Z 22008KT CAVOK 32/26 Q1005 NOSIG
Conditions at: OEJN (JEDDAH/KING ABDU, SA) observed 2200 UTC 18 August 2019
Temperature: 32.0°C (90°F)
Dewpoint: 26.0°C (79°F) [RH = 71%]
Pressure (altimeter): 29.68 inches Hg (1005.0 mb)
Winds: from the SW (220 degrees) at 9 MPH (8 knots; 4.1 m/s)
Visibility: 6 or more miles (10+ km)
Ceiling: ceiling and visibility are OK
Clouds: unknown
Weather: no significant weather observed at this time

METAR text: OEJN 182100Z 29006KT CAVOK 34/25 Q1005 NOSIG
Conditions at: OEJN (JEDDAH/KING ABDU, SA) observed 2100 UTC 18 August 2019
Temperature: 34.0°C (93°F)
Dewpoint: 25.0°C (77°F) [RH = 60%]
Pressure (altimeter): 29.68 inches Hg (1005.0 mb)
Winds: from the WNW (290 degrees) at 7 MPH (6 knots; 3.1 m/s)
Visibility: 6 or more miles (10+ km)
Ceiling: ceiling and visibility are OK
Clouds: unknown
Weather: no significant weather observed at this time

METAR text: OEJN 182000Z 26006KT CAVOK 34/25 Q1005 NOSIG
Conditions at: OEJN (JEDDAH/KING ABDU, SA) observed 2000 UTC 18 August 2019
Temperature: 34.0°C (93°F)
Dewpoint: 25.0°C (77°F) [RH = 60%]
Pressure (altimeter): 29.68 inches Hg (1005.0 mb)
Winds: from the W (260 degrees) at 7 MPH (6 knots; 3.1 m/s)
Visibility: 6 or more miles (10+ km)
Ceiling: ceiling and visibility are OK
Clouds: unknown
Weather: no significant weather observed at this time

METAR text: OEJN 181900Z 00000KT CAVOK 34/26 Q1006 NOSIG
Conditions at: OEJN (JEDDAH/KING ABDU, SA) observed 1900 UTC 18 August 2019
Temperature: 34.0°C (93°F)
Dewpoint: 26.0°C (79°F) [RH = 63%]
Pressure (altimeter): 29.70 inches Hg (1006.0 mb)
Winds: calm
Visibility: 6 or more miles (10+ km)
Ceiling: ceiling and visibility are OK
Clouds: unknown
Weather: no significant weather observed at this time

METAR text: OEJN 181800Z 00000KT CAVOK 34/26 Q1006 NOSIG
Conditions at: OEJN (JEDDAH/KING ABDU, SA) observed 1800 UTC 18 August 2019
Temperature: 34.0°C (93°F)
Dewpoint: 26.0°C (79°F) [RH = 63%]
Pressure (altimeter): 29.70 inches Hg (1006.0 mb)
Winds: calm
Visibility: 6 or more miles (10+ km)
Ceiling: ceiling and visibility are OK
Clouds: unknown
Weather: no significant weather observed at this time

METAR text: OEJN 181700Z 30005KT CAVOK 34/26 Q1005 NOSIG
Conditions at: OEJN (JEDDAH/KING ABDU, SA) observed 1700 UTC 18 August 2019
Temperature: 34.0°C (93°F)
Dewpoint: 26.0°C (79°F) [RH = 63%]
Pressure (altimeter): 29.68 inches Hg (1005.0 mb)
Winds: from the WNW (300 degrees) at 6 MPH (5 knots; 2.6 m/s)
Visibility: 6 or more miles (10+ km)
Ceiling: ceiling and visibility are OK
Clouds: unknown
Weather: no significant weather observed at this time

METAR text: OEJN 181600Z 30006KT CAVOK 35/25 Q1004 NOSIG
Conditions at: OEJN (JEDDAH/KING ABDU, SA) observed 1600 UTC 18 August 2019
Temperature: 35.0°C (95°F)
Dewpoint: 25.0°C (77°F) [RH = 56%]
Pressure (altimeter): 29.65 inches Hg (1004.0 mb)
Winds: from the WNW (300 degrees) at 7 MPH (6 knots; 3.1 m/s)
Visibility: 6 or more miles (10+ km)
Ceiling: ceiling and visibility are OK
Clouds: unknown
Weather: no significant weather observed at this time

METAR text: OEJN 181500Z 30008KT CAVOK 36/25 Q1003 NOSIG
Conditions at: OEJN (JEDDAH/KING ABDU, SA) observed 1500 UTC 18 August 2019
Temperature: 36.0°C (97°F)
Dewpoint: 25.0°C (77°F) [RH = 53%]
Pressure (altimeter): 29.62 inches Hg (1003.0 mb)
Winds: from the WNW (300 degrees) at 9 MPH (8 knots; 4.1 m/s)
Visibility: 6 or more miles (10+ km)
Ceiling: ceiling and visibility are OK
Clouds: unknown
Weather: no significant weather observed at this time

METAR text: OEJN 181400Z 28009KT CAVOK 36/26 Q1003 NOSIG
Conditions at: OEJN (JEDDAH/KING ABDU, SA) observed 1400 UTC 18 August 2019
Temperature: 36.0°C (97°F)
Dewpoint: 26.0°C (79°F) [RH = 57%]
Pressure (altimeter): 29.62 inches Hg (1003.0 mb)
Winds: from the W (280 degrees) at 10 MPH (9 knots; 4.6 m/s)
Visibility: 6 or more miles (10+ km)
Ceiling: ceiling and visibility are OK
Clouds: unknown
Weather: no significant weather observed at this time

METAR text: OEJN 181300Z 27010KT CAVOK 36/26 Q1004 NOSIG
Conditions at: OEJN (JEDDAH/KING ABDU, SA) observed 1300 UTC 18 August 2019
Temperature: 36.0°C (97°F)
Dewpoint: 26.0°C (79°F) [RH = 57%]
Pressure (altimeter): 29.65 inches Hg (1004.0 mb)
Winds: from the W (270 degrees) at 12 MPH (10 knots; 5.1 m/s)
Visibility: 6 or more miles (10+ km)
Ceiling: ceiling and visibility are OK
Clouds: unknown
Weather: no significant weather observed at this time

METAR text: OEJN 181200Z 28010KT CAVOK 36/25 Q1004 NOSIG
Conditions at: OEJN (JEDDAH/KING ABDU, SA) observed 1200 UTC 18 August 2019
Temperature: 36.0°C (97°F)
Dewpoint: 25.0°C (77°F) [RH = 53%]
Pressure (altimeter): 29.65 inches Hg (1004.0 mb)
Winds: from the W (280 degrees) at 12 MPH (10 knots; 5.1 m/s)
Visibility: 6 or more miles (10+ km)
Ceiling: ceiling and visibility are OK
Clouds: unknown
Weather: no significant weather observed at this time

METAR text: OEJN 181100Z 30012KT CAVOK 36/24 Q1004 NOSIG
Conditions at: OEJN (JEDDAH/KING ABDU, SA) observed 1100 UTC 18 August 2019
Temperature: 36.0°C (97°F)
Dewpoint: 24.0°C (75°F) [RH = 50%]
Pressure (altimeter): 29.65 inches Hg (1004.0 mb)
Winds: from the WNW (300 degrees) at 14 MPH (12 knots; 6.2 m/s)
Visibility: 6 or more miles (10+ km)
Ceiling: ceiling and visibility are OK
Clouds: unknown
Weather: no significant weather observed at this time

METAR text: OEJN 181000Z 27012KT CAVOK 37/25 Q1004 NOSIG
Conditions at: OEJN (JEDDAH/KING ABDU, SA) observed 1000 UTC 18 August 2019
Temperature: 37.0°C (99°F)
Dewpoint: 25.0°C (77°F) [RH = 50%]
Pressure (altimeter): 29.65 inches Hg (1004.0 mb)
Winds: from the W (270 degrees) at 14 MPH (12 knots; 6.2 m/s)
Visibility: 6 or more miles (10+ km)
Ceiling: ceiling and visibility are OK
Clouds: unknown
Weather: no significant weather observed at this time

METAR text: OEJN 180900Z 28011KT CAVOK 37/24 Q1004 NOSIG
Conditions at: OEJN (JEDDAH/KING ABDU, SA) observed 0900 UTC 18 August 2019
Temperature: 37.0°C (99°F)
Dewpoint: 24.0°C (75°F) [RH = 48%]
Pressure (altimeter): 29.65 inches Hg (1004.0 mb)
Winds: from the W (280 degrees) at 13 MPH (11 knots; 5.7 m/s)
Visibility: 6 or more miles (10+ km)
Ceiling: ceiling and visibility are OK
Clouds: unknown
Weather: no significant weather observed at this time

METAR text: OEJN 180800Z 32012KT CAVOK 36/25 Q1004 NOSIG
Conditions at: OEJN (JEDDAH/KING ABDU, SA) observed 0800 UTC 18 August 2019
Temperature: 36.0°C (97°F)
Dewpoint: 25.0°C (77°F) [RH = 53%]
Pressure (altimeter): 29.65 inches Hg (1004.0 mb)
Winds: from the NW (320 degrees) at 14 MPH (12 knots; 6.2 m/s)
Visibility: 6 or more miles (10+ km)
Ceiling: ceiling and visibility are OK
Clouds: unknown
Weather: no significant weather observed at this time

Forecast for: OEJN (JEDDAH/KING ABDU, SA)
Text: TAF OEJN 191700Z 1918/2024 VRB03KT 9999 FEW040
Forecast period: 1800 UTC 19 August 2019 to 0600 UTC 20 August 2019
Forecast type: FROM: standard forecast or significant change
Winds: variable direction winds at 3 MPH (3 knots; 1.5 m/s)
Visibility: 6 or more miles 10+ km)
Ceiling: at least 12,000 feet AGL
Clouds: few clouds at 4000 feet AGL
Weather: no significant weather forecast for this period
Text: BECMG 2006/2008 34015KT
Forecast period: 0600 UTC 20 August 2019 to 0000 UTC 21 August 2019
Forecast type: BECOMING: Conditions expected to become as follows by 0800 UTC 20 August 2019
Winds: from the NNW (340 degrees) at 17 MPH (15 knots; 7.7 m/s)
Visibility: 6 or more miles 10+ km)
Ceiling: at least 12,000 feet AGL
Clouds: few clouds at 4000 feet AGL
Weather: no significant weather forecast for this period